createdAt,value
2018-07-24T20:05:19.492Z,32.00
2018-07-24T20:07:48.341Z,30.00
2018-07-24T20:10:17.383Z,29.80
2018-07-24T20:12:46.542Z,29.80
2018-07-24T20:15:18.100Z,29.90
2018-07-24T20:17:47.245Z,29.80
2018-07-24T20:20:18.112Z,29.80
2018-07-24T20:22:47.365Z,29.80
2018-07-24T20:25:16.165Z,29.80
2018-07-24T20:27:45.128Z,29.70
2018-07-24T20:30:14.046Z,29.70
2018-07-24T20:32:42.944Z,29.70
2018-07-24T20:35:11.989Z,29.70
2018-07-24T20:37:40.969Z,29.50
2018-07-24T20:40:10.030Z,29.50
2018-07-24T20:42:38.940Z,29.40
2018-07-24T20:45:07.891Z,29.50
2018-07-24T20:47:36.798Z,29.50
2018-07-24T20:50:05.699Z,29.50
2018-07-24T20:52:34.644Z,29.40
2018-07-24T20:55:03.556Z,29.40
2018-07-24T20:57:33.430Z,29.40
2018-07-24T21:00:04.452Z,29.40
2018-07-24T21:02:33.342Z,29.40
2018-07-24T21:05:02.195Z,29.40
2018-07-24T21:07:31.340Z,29.40
2018-07-24T21:10:00.480Z,29.40
2018-07-24T21:12:29.546Z,29.40
2018-07-24T21:16:01.486Z,29.40
2018-07-24T21:18:30.665Z,29.30
2018-07-24T21:20:59.779Z,29.20
2018-07-24T21:23:28.693Z,29.20
2018-07-24T21:25:57.557Z,29.20
2018-07-24T21:28:26.408Z,29.10
2018-07-24T21:30:55.241Z,29.10
2018-07-24T21:33:24.709Z,29.00
2018-07-24T21:35:53.547Z,29.00
2018-07-24T21:38:22.453Z,29.00
2018-07-24T21:40:51.304Z,29.00
2018-07-24T21:43:20.286Z,29.00
2018-07-24T21:45:55.524Z,28.90
2018-07-24T21:48:24.434Z,28.90
2018-07-24T21:50:53.801Z,28.80
2018-07-24T21:53:22.644Z,28.80
2018-07-24T21:55:51.516Z,28.80
2018-07-24T21:58:23.729Z,28.60
2018-07-24T22:00:57.878Z,28.50
2018-07-24T22:03:26.717Z,28.40
2018-07-24T22:05:55.580Z,28.40
2018-07-24T22:08:24.449Z,28.40
2018-07-24T22:10:53.372Z,28.50
2018-07-24T22:13:22.242Z,28.60
2018-07-24T22:15:51.117Z,28.60
2018-07-24T22:18:20.020Z,28.60
2018-07-24T22:33:11.414Z,28.60
2018-07-24T22:35:40.288Z,28.00
2018-07-24T22:38:09.226Z,28.10
2018-07-24T22:40:39.776Z,28.10
2018-07-24T22:43:09.330Z,28.20
2018-07-24T22:45:38.173Z,28.20
2018-07-24T22:48:08.072Z,28.20
2018-07-24T22:50:37.913Z,28.20
2018-07-24T22:53:06.916Z,28.30
2018-07-24T22:55:35.796Z,28.10
2018-07-24T22:58:04.649Z,28.10
2018-07-24T23:00:33.595Z,28.10
2018-07-24T23:03:02.434Z,27.70
2018-07-24T23:05:31.296Z,27.90
